Orwell, New York
Current Conditions -  °F | °C
As of 7:54 PM on Saturday 22 Nov 2014 (Local Time) from KFZY Reporting Station
Overcast Overcast  
Wind Chill: 35°   Ceiling: 2000
Heat Index: 40°   Visibility: 10mi
Dew Point: 35°   Wind: 7mph
Humidity: 83%   Direction: 170°S
Pressure: 30"   Gusts: NA
Location:  43.57°N, 76°W
Report Text: KFZY 230054Z AUTO 17006KT 10SM OVC020 04/02 A3000 RMK AO2 SLP164 T00440017
Loading
Personal Weather Stations






























Interactive Weather Map New forecast layout! Learn more

10-Day Weather Forecast

Advertisements
Track Severe Weather on mobile